createdAt,value
2019-03-25T00:00:46.024Z,4.47
2019-03-25T00:03:14.685Z,5.67
2019-03-25T00:05:43.360Z,4.67
2019-03-25T00:08:12.104Z,4.87
2019-03-25T00:10:40.757Z,4.77
2019-03-25T00:13:09.371Z,5.37
2019-03-25T00:15:38.179Z,5.97
2019-03-25T00:18:06.892Z,4.50
2019-03-25T00:20:35.628Z,5.50
2019-03-25T00:23:04.387Z,5.40
2019-03-25T00:25:33.041Z,4.57
2019-03-25T00:28:01.765Z,4.93
2019-03-25T00:30:30.470Z,4.97
2019-03-25T00:32:59.105Z,4.87
2019-03-25T00:35:27.813Z,5.70
2019-03-25T00:37:56.533Z,5.57
2019-03-25T00:40:25.248Z,5.17
2019-03-25T00:42:53.880Z,5.67
2019-03-25T00:45:22.550Z,6.50
2019-03-25T00:47:51.265Z,6.70
2019-03-25T00:50:19.984Z,5.70
2019-03-25T00:52:48.689Z,5.87
2019-03-25T00:55:17.409Z,6.47
2019-03-25T00:57:46.148Z,7.23
2019-03-25T01:00:15.238Z,6.70
2019-03-25T01:02:43.947Z,6.57
2019-03-25T01:05:13.020Z,6.33
2019-03-25T01:07:41.759Z,7.37
2019-03-25T01:10:10.593Z,7.20
2019-03-25T01:12:39.244Z,7.47
2019-03-25T01:15:08.079Z,6.47
2019-03-25T01:17:36.792Z,8.23
2019-03-25T01:20:05.682Z,8.03
2019-03-25T01:22:34.322Z,7.80
2019-03-25T01:25:03.016Z,8.13
2019-03-25T01:27:31.723Z,7.37
2019-03-25T01:30:00.515Z,6.80
2019-03-25T01:32:29.144Z,8.40
2019-03-25T01:34:57.882Z,7.27
2019-03-25T01:37:26.574Z,7.17
2019-03-25T01:39:55.332Z,8.33
2019-03-25T01:42:24.000Z,6.53
2019-03-25T01:44:52.738Z,6.63
2019-03-25T01:47:21.460Z,6.63
2019-03-25T01:49:50.185Z,6.53
2019-03-25T01:52:18.942Z,6.73
2019-03-25T01:54:47.607Z,6.10
2019-03-25T01:57:16.351Z,7.27
2019-03-25T01:59:45.183Z,5.77
2019-03-25T02:02:13.916Z,6.60
2019-03-25T02:04:42.551Z,6.83
2019-03-25T02:07:11.366Z,6.83
2019-03-25T02:09:40.017Z,6.07
2019-03-25T02:12:08.737Z,7.10
2019-03-25T02:14:37.476Z,6.47
2019-03-25T02:17:06.216Z,6.63
2019-03-25T02:19:34.924Z,6.27
2019-03-25T02:22:03.673Z,6.60
2019-03-25T02:24:32.329Z,6.40
2019-03-25T02:27:01.008Z,8.77
2019-03-25T02:29:29.755Z,6.57
2019-03-25T02:31:58.483Z,6.83
2019-03-25T02:34:27.133Z,7.13
2019-03-25T02:36:55.823Z,7.17
2019-03-25T02:39:24.468Z,7.67
2019-03-25T02:41:53.172Z,8.43
2019-03-25T02:44:21.936Z,8.20
2019-03-25T02:46:50.660Z,8.60
2019-03-25T02:49:19.421Z,7.63
2019-03-25T02:51:48.210Z,9.10
2019-03-25T02:54:17.063Z,8.50
2019-03-25T02:56:56.032Z,8.17
2019-03-25T02:59:24.789Z,8.43
2019-03-25T03:01:53.456Z,7.77
2019-03-25T03:04:22.140Z,8.23
2019-03-25T03:06:50.892Z,9.07
2019-03-25T03:09:19.566Z,8.17
2019-03-25T03:11:48.307Z,8.37
2019-03-25T03:14:17.002Z,8.70
2019-03-25T03:16:45.627Z,8.40
2019-03-25T03:19:14.360Z,8.50
2019-03-25T03:21:43.081Z,8.43
2019-03-25T03:24:12.094Z,8.80
2019-03-25T03:26:40.894Z,8.80
2019-03-25T03:29:09.639Z,9.50
2019-03-25T03:31:38.407Z,8.90
2019-03-25T03:34:07.449Z,9.40
2019-03-25T03:36:36.267Z,9.50
2019-03-25T03:39:05.566Z,9.53
2019-03-25T03:41:34.301Z,9.70
2019-03-25T03:44:03.021Z,11.17
2019-03-25T03:46:31.790Z,10.73
2019-03-25T03:49:00.630Z,11.60
2019-03-25T03:51:29.362Z,10.77
2019-03-25T03:53:58.076Z,10.60
2019-03-25T03:56:26.930Z,10.57
2019-03-25T03:58:55.751Z,8.97
2019-03-25T04:01:24.381Z,7.53
2019-03-25T04:03:53.154Z,7.53
2019-03-25T04:06:21.881Z,7.90
2019-03-25T04:08:50.584Z,7.40
2019-03-25T04:11:19.355Z,7.23
2019-03-25T04:13:48.069Z,7.90
2019-03-25T04:16:16.817Z,7.70
2019-03-25T04:18:47.637Z,8.00
2019-03-25T04:21:16.283Z,7.03
2019-03-25T04:24:03.852Z,6.03
2019-03-25T04:26:32.569Z,5.97
2019-03-25T04:29:01.256Z,3.90
2019-03-25T04:31:30.041Z,4.20
2019-03-25T04:33:58.702Z,4.23
2019-03-25T04:36:27.329Z,4.60
2019-03-25T04:38:56.085Z,5.30
2019-03-25T04:41:24.796Z,5.30
2019-03-25T04:43:54.610Z,5.90
2019-03-25T04:46:23.540Z,4.67
2019-03-25T04:49:10.338Z,5.23
2019-03-25T04:51:39.001Z,5.00
2019-03-25T04:54:08.278Z,3.80
2019-03-25T04:56:40.026Z,4.40
2019-03-25T04:59:07.560Z,5.17
2019-03-25T05:01:36.234Z,6.30
2019-03-25T05:04:04.868Z,5.13
2019-03-25T05:06:33.543Z,6.40
2019-03-25T05:09:02.272Z,6.90
2019-03-25T05:11:31.103Z,6.77
2019-03-25T05:13:59.724Z,6.50
2019-03-25T05:16:28.412Z,6.93
2019-03-25T05:18:57.032Z,6.97
2019-03-25T05:21:25.708Z,7.33
2019-03-25T05:23:54.454Z,8.40
2019-03-25T05:26:23.167Z,6.90
2019-03-25T05:28:51.839Z,6.53
2019-03-25T05:31:20.544Z,6.10
2019-03-25T05:33:49.200Z,5.63
2019-03-25T05:36:17.854Z,5.10
2019-03-25T05:38:46.546Z,4.17
2019-03-25T05:41:15.180Z,4.20
2019-03-25T05:43:43.920Z,2.63
2019-03-25T05:46:12.636Z,2.80
2019-03-25T05:48:41.255Z,3.07
2019-03-25T05:51:09.992Z,3.00
2019-03-25T05:53:38.722Z,3.43
2019-03-25T05:56:07.433Z,2.40
2019-03-25T05:58:36.171Z,2.00
2019-03-25T06:01:05.032Z,2.07
2019-03-25T06:03:33.790Z,3.40
2019-03-25T06:06:03.395Z,2.03
2019-03-25T06:08:32.036Z,2.23
2019-03-25T06:11:00.699Z,2.20
2019-03-25T06:13:29.376Z,2.60
2019-03-25T06:15:58.155Z,2.47
2019-03-25T06:18:26.824Z,2.83
2019-03-25T06:20:55.560Z,2.70
2019-03-25T06:23:24.213Z,2.90
2019-03-25T06:25:52.968Z,2.53
2019-03-25T06:28:21.693Z,2.40
2019-03-25T06:30:50.438Z,2.97
2019-03-25T06:33:19.224Z,2.43
2019-03-25T06:35:47.974Z,3.20
2019-03-25T06:38:16.626Z,3.17
2019-03-25T06:40:45.291Z,3.07
2019-03-25T06:43:14.040Z,3.43
2019-03-25T06:45:42.751Z,3.50
2019-03-25T06:48:11.489Z,3.83
2019-03-25T06:50:40.324Z,3.50
2019-03-25T06:53:09.142Z,4.03
2019-03-25T06:55:37.786Z,4.10
2019-03-25T06:58:06.484Z,4.53
2019-03-25T07:00:35.316Z,3.63
2019-03-25T07:03:04.028Z,4.63
2019-03-25T07:05:32.999Z,3.53
2019-03-25T07:08:01.641Z,3.53
2019-03-25T07:10:31.246Z,4.80
2019-03-25T07:13:00.360Z,5.10
2019-03-25T07:15:29.464Z,5.03
2019-03-25T07:17:58.186Z,5.27
2019-03-25T07:20:27.040Z,6.50
2019-03-25T07:22:55.824Z,4.57
2019-03-25T07:25:24.679Z,5.73
2019-03-25T07:27:53.705Z,5.60
2019-03-25T07:30:22.492Z,5.93
2019-03-25T07:32:51.246Z,5.93
2019-03-25T07:35:22.349Z,6.67
2019-03-25T07:37:50.636Z,6.70
2019-03-25T07:40:19.281Z,5.33
2019-03-25T07:42:48.052Z,6.40
2019-03-25T07:45:17.027Z,5.80
2019-03-25T07:47:45.719Z,7.87
2019-03-25T07:50:14.476Z,5.80
2019-03-25T07:52:43.194Z,6.17
2019-03-25T07:55:11.936Z,5.70
2019-03-25T07:57:52.614Z,5.67
2019-03-25T08:00:21.377Z,5.73
2019-03-25T08:02:54.793Z,4.93
2019-03-25T08:05:23.530Z,5.97
2019-03-25T08:07:52.282Z,5.77
2019-03-25T08:10:30.825Z,6.13
2019-03-25T08:12:59.682Z,4.30
2019-03-25T08:15:28.621Z,4.63
2019-03-25T08:17:57.486Z,5.47
2019-03-25T08:20:26.189Z,5.37
2019-03-25T08:22:54.992Z,4.00
2019-03-25T08:25:23.857Z,4.37
2019-03-25T08:27:59.922Z,4.20
2019-03-25T08:30:23.116Z,3.13
2019-03-25T08:32:51.866Z,3.00
2019-03-25T08:35:20.507Z,3.30
2019-03-25T08:37:49.257Z,3.80
2019-03-25T08:40:18.060Z,2.40
2019-03-25T08:42:46.783Z,2.60
2019-03-25T08:45:15.488Z,1.30
2019-03-25T08:47:44.218Z,2.20
2019-03-25T08:50:13.109Z,1.50
2019-03-25T08:52:41.820Z,1.47
2019-03-25T08:55:16.683Z,1.80
2019-03-25T08:57:45.403Z,1.77
2019-03-25T09:00:14.332Z,1.40
2019-03-25T09:02:44.912Z,1.50
2019-03-25T09:05:13.665Z,2.43
2019-03-25T09:07:45.811Z,1.83
2019-03-25T09:10:14.689Z,1.60
2019-03-25T09:12:43.407Z,1.60
2019-03-25T09:15:12.282Z,2.30
2019-03-25T09:17:41.103Z,1.90
2019-03-25T09:20:09.928Z,2.23
2019-03-25T09:22:38.652Z,2.37
2019-03-25T09:25:07.732Z,2.53
2019-03-25T09:27:36.516Z,2.00
2019-03-25T09:30:07.012Z,2.57
2019-03-25T09:32:35.788Z,2.37
2019-03-25T09:35:05.948Z,2.50
2019-03-25T09:37:34.798Z,2.33
2019-03-25T09:40:04.092Z,2.73
2019-03-25T09:42:32.860Z,2.77
2019-03-25T09:45:01.584Z,2.60
2019-03-25T09:47:30.371Z,2.30
2019-03-25T09:49:59.396Z,2.50
2019-03-25T09:52:38.084Z,2.23
2019-03-25T09:54:59.086Z,3.23
2019-03-25T09:57:27.812Z,2.80
2019-03-25T09:59:59.553Z,3.10
2019-03-25T10:02:28.318Z,2.70
2019-03-25T10:04:56.993Z,3.30
2019-03-25T10:07:28.290Z,2.67
2019-03-25T10:09:56.105Z,2.33
2019-03-25T10:12:24.837Z,2.73
2019-03-25T10:18:04.662Z,2.40
2019-03-25T10:20:33.379Z,3.23
2019-03-25T10:23:02.114Z,2.77
2019-03-25T10:25:30.859Z,1.90
2019-03-25T10:27:59.509Z,1.87
2019-03-25T10:30:28.363Z,2.13
2019-03-25T10:32:57.314Z,1.93
2019-03-25T10:35:26.019Z,1.70
2019-03-25T10:37:54.822Z,1.50
2019-03-25T10:40:23.556Z,2.20
2019-03-25T10:42:52.325Z,1.60
2019-03-25T10:45:21.042Z,1.47
2019-03-25T10:47:49.805Z,1.23
2019-03-25T10:50:18.704Z,1.37
2019-03-25T10:52:47.436Z,1.60
2019-03-25T10:55:16.274Z,2.20
2019-03-25T10:57:45.002Z,2.07
2019-03-25T11:00:13.893Z,2.33
2019-03-25T11:02:42.616Z,1.60
2019-03-25T11:05:11.454Z,1.87
2019-03-25T11:07:40.304Z,2.00
2019-03-25T11:10:09.135Z,1.60
2019-03-25T11:12:37.891Z,1.77
2019-03-25T11:15:06.868Z,1.70
2019-03-25T11:17:35.597Z,1.80
2019-03-25T11:20:04.751Z,1.87
2019-03-25T11:22:33.616Z,1.83
2019-03-25T11:25:02.348Z,2.50
2019-03-25T11:27:31.169Z,1.93
2019-03-25T11:29:59.887Z,1.93
2019-03-25T11:32:28.614Z,2.97
2019-03-25T11:34:57.366Z,1.80
2019-03-25T11:37:26.196Z,1.57
2019-03-25T11:39:54.941Z,1.97
2019-03-25T11:42:23.730Z,2.63
2019-03-25T11:44:52.467Z,1.63
2019-03-25T11:47:21.179Z,2.87
2019-03-25T11:49:49.944Z,2.07
2019-03-25T11:52:18.744Z,2.27
2019-03-25T11:54:47.406Z,2.17
2019-03-25T11:57:16.155Z,1.43
2019-03-25T11:59:44.960Z,1.50
2019-03-25T12:02:17.447Z,2.23
2019-03-25T12:04:44.215Z,1.33
2019-03-25T12:07:12.941Z,1.37
2019-03-25T12:09:41.724Z,1.87
2019-03-25T12:12:11.551Z,1.50
2019-03-25T12:14:40.259Z,2.40
2019-03-25T12:17:08.922Z,1.90
2019-03-25T12:19:37.648Z,2.33
2019-03-25T12:22:06.445Z,2.40
2019-03-25T12:24:35.086Z,2.60
2019-03-25T12:27:03.835Z,1.70
2019-03-25T12:29:32.578Z,2.20
2019-03-25T12:32:01.628Z,2.30
2019-03-25T12:34:30.515Z,3.20
2019-03-25T12:37:00.474Z,2.30
2019-03-25T12:39:30.251Z,2.70
2019-03-25T12:41:59.028Z,2.00
2019-03-25T12:44:27.704Z,2.30
2019-03-25T12:46:56.515Z,1.70
2019-03-25T12:49:25.349Z,2.00
2019-03-25T12:51:57.040Z,1.70
2019-03-25T12:54:25.859Z,1.57
2019-03-25T12:56:54.589Z,2.83
2019-03-25T12:59:23.335Z,1.43
2019-03-25T13:01:53.165Z,1.90
2019-03-25T13:04:22.274Z,2.00
2019-03-25T13:06:51.060Z,1.30
2019-03-25T13:09:19.823Z,1.33
2019-03-25T13:11:48.560Z,0.90
2019-03-25T13:14:17.242Z,1.20
2019-03-25T13:16:45.893Z,1.20
2019-03-25T13:19:14.602Z,1.30
2019-03-25T13:21:43.408Z,2.10
2019-03-25T13:24:12.181Z,1.30
2019-03-25T13:26:41.726Z,1.10
2019-03-25T13:29:11.473Z,1.73
2019-03-25T13:31:40.113Z,1.77
2019-03-25T13:34:08.787Z,2.00
2019-03-25T13:36:37.455Z,1.20
2019-03-25T13:39:07.301Z,1.40
2019-03-25T13:41:37.075Z,1.47
2019-03-25T13:44:06.962Z,1.20
2019-03-25T13:46:35.691Z,1.97
2019-03-25T13:49:04.490Z,1.37
2019-03-25T13:51:33.159Z,1.70
2019-03-25T13:54:01.900Z,1.90
2019-03-25T13:56:30.646Z,1.50
2019-03-25T13:58:59.377Z,1.93
2019-03-25T14:01:28.036Z,1.47
2019-03-25T14:03:56.775Z,2.63
2019-03-25T14:06:25.439Z,1.90
2019-03-25T14:08:55.832Z,1.57
2019-03-25T14:11:24.752Z,2.00
2019-03-25T14:13:53.695Z,1.90
2019-03-25T14:16:22.415Z,1.93
2019-03-25T14:18:51.088Z,1.90
2019-03-25T14:21:19.885Z,1.60
2019-03-25T14:23:48.717Z,2.53
2019-03-25T14:26:17.491Z,2.10
2019-03-25T14:28:46.235Z,1.73
2019-03-25T14:31:14.973Z,2.43
2019-03-25T14:33:43.657Z,1.70
2019-03-25T14:36:12.468Z,1.67
2019-03-25T14:38:41.188Z,2.53
2019-03-25T14:41:28.739Z,2.17
2019-03-25T14:43:57.531Z,1.50
2019-03-25T14:46:26.240Z,1.70
2019-03-25T14:48:54.929Z,1.50
2019-03-25T14:51:23.547Z,1.90
2019-03-25T14:53:52.389Z,2.10
2019-03-25T14:56:21.252Z,2.50
2019-03-25T14:58:49.951Z,1.13
2019-03-25T15:01:19.664Z,1.50
2019-03-25T15:03:48.471Z,1.37
2019-03-25T15:06:17.167Z,1.20
2019-03-25T15:08:45.939Z,1.30
2019-03-25T15:11:14.718Z,1.20
2019-03-25T15:13:43.351Z,1.10
2019-03-25T15:16:12.059Z,1.40
2019-03-25T15:18:40.846Z,1.23
2019-03-25T15:21:09.839Z,1.77
2019-03-25T15:23:38.488Z,1.53
2019-03-25T15:26:08.052Z,1.70
2019-03-25T15:28:36.726Z,1.87
2019-03-25T15:31:05.462Z,2.00
2019-03-25T15:33:53.076Z,1.50
2019-03-25T15:36:21.814Z,1.60
2019-03-25T15:38:50.448Z,2.17
2019-03-25T15:41:19.122Z,2.70
2019-03-25T15:43:47.759Z,1.60
2019-03-25T15:46:16.415Z,2.00
2019-03-25T15:48:45.205Z,1.67
2019-03-25T15:51:13.939Z,1.70
2019-03-25T15:53:42.744Z,1.70
2019-03-25T15:56:11.502Z,1.67
2019-03-25T15:58:40.148Z,1.80
2019-03-25T16:01:08.903Z,1.50
2019-03-25T16:03:37.637Z,1.57
2019-03-25T16:06:06.457Z,1.30
2019-03-25T16:08:35.180Z,1.60
2019-03-25T16:14:14.595Z,2.37
2019-03-25T16:16:43.322Z,1.43
2019-03-25T16:19:12.073Z,1.50
2019-03-25T16:21:40.952Z,1.60
2019-03-25T16:24:09.579Z,1.93
2019-03-25T16:26:38.293Z,1.70
2019-03-25T16:29:06.958Z,2.03
2019-03-25T16:31:35.716Z,2.10
2019-03-25T16:34:04.438Z,1.83
2019-03-25T16:36:33.227Z,16.83
2019-03-25T16:39:01.888Z,2.10
2019-03-25T16:41:30.551Z,3.50
2019-03-25T16:43:59.241Z,1.83
2019-03-25T16:46:27.869Z,1.97
2019-03-25T16:48:56.595Z,2.53
2019-03-25T16:51:25.325Z,3.10
2019-03-25T16:54:03.025Z,4.23
2019-03-25T16:56:31.697Z,3.53
2019-03-25T16:59:00.420Z,1.93
2019-03-25T17:01:29.158Z,2.40
2019-03-25T17:03:57.789Z,2.90
2019-03-25T17:06:26.569Z,2.53
2019-03-25T17:08:55.205Z,2.00
2019-03-25T17:11:24.073Z,2.40
2019-03-25T17:13:54.219Z,2.07
2019-03-25T17:16:23.045Z,2.63
2019-03-25T17:18:51.686Z,4.00
2019-03-25T17:21:20.644Z,2.90
2019-03-25T17:23:51.412Z,3.30
2019-03-25T17:26:20.960Z,2.23
2019-03-25T17:28:49.866Z,1.87
2019-03-25T17:31:21.146Z,3.00
2019-03-25T17:33:49.345Z,1.90
2019-03-25T17:36:26.772Z,2.30
2019-03-25T17:38:55.755Z,2.53
2019-03-25T17:41:29.771Z,3.70
2019-03-25T17:43:58.407Z,3.70
2019-03-25T17:46:27.063Z,2.47
2019-03-25T17:48:55.802Z,3.33
2019-03-25T17:51:24.521Z,3.80
2019-03-25T17:53:53.128Z,4.83
2019-03-25T17:56:21.806Z,4.50
2019-03-25T17:58:50.584Z,2.83
2019-03-25T18:01:32.208Z,3.47
2019-03-25T18:03:55.972Z,2.63
2019-03-25T18:06:24.654Z,2.43
2019-03-25T18:08:53.281Z,2.60
2019-03-25T18:11:23.015Z,4.07
2019-03-25T18:13:55.547Z,3.97
2019-03-25T18:16:24.255Z,3.43
2019-03-25T18:18:52.908Z,7.23
2019-03-25T18:21:21.557Z,4.20
2019-03-25T18:23:50.391Z,6.50
2019-03-25T18:26:19.102Z,5.10
2019-03-25T18:28:47.740Z,2.40
2019-03-25T18:31:16.543Z,3.43
2019-03-25T18:33:46.299Z,3.03
2019-03-25T18:36:14.984Z,2.50
2019-03-25T18:38:43.705Z,2.90
2019-03-25T18:41:13.531Z,3.53
2019-03-25T18:43:42.338Z,3.17
2019-03-25T18:46:11.001Z,3.30
2019-03-25T18:48:40.123Z,3.97
2019-03-25T18:51:08.821Z,3.90
2019-03-25T18:53:37.520Z,3.23
2019-03-25T18:56:07.001Z,4.13
2019-03-25T18:58:36.489Z,3.57
2019-03-25T19:01:06.082Z,3.37
2019-03-25T19:03:34.914Z,5.67
2019-03-25T19:06:03.640Z,5.57
2019-03-25T19:08:32.341Z,3.57
2019-03-25T19:11:01.068Z,3.83
2019-03-25T19:13:29.697Z,4.43
2019-03-25T19:15:58.404Z,8.07
2019-03-25T19:18:27.091Z,5.00
2019-03-25T19:20:57.819Z,3.50
2019-03-25T19:23:32.231Z,5.60
2019-03-25T19:26:01.358Z,3.30
2019-03-25T19:28:30.111Z,3.40
2019-03-25T19:31:00.469Z,2.70
2019-03-25T19:33:29.112Z,3.40
2019-03-25T19:35:58.019Z,3.27
2019-03-25T19:38:27.897Z,3.00
2019-03-25T19:40:56.740Z,2.63
2019-03-25T19:43:25.718Z,2.63
2019-03-25T19:45:54.507Z,2.80
2019-03-25T19:48:23.217Z,2.80
2019-03-25T19:50:52.062Z,2.70
2019-03-25T19:53:21.054Z,3.20
2019-03-25T19:55:49.767Z,3.40
2019-03-25T19:58:18.617Z,4.17
2019-03-25T20:00:47.611Z,3.30
2019-03-25T20:03:16.407Z,3.77
2019-03-25T20:05:45.221Z,4.43
2019-03-25T20:08:14.000Z,3.37
2019-03-25T20:10:42.797Z,3.87
2019-03-25T20:13:12.600Z,3.60
2019-03-25T20:15:46.589Z,3.93
2019-03-25T20:18:11.927Z,3.85
2019-03-25T20:20:40.648Z,3.43
2019-03-25T20:23:09.397Z,4.17
2019-03-25T20:25:38.276Z,3.70
2019-03-25T20:28:07.174Z,3.93
2019-03-25T20:30:36.134Z,4.00
2019-03-25T20:33:05.480Z,3.20
2019-03-25T20:35:34.692Z,4.10
2019-03-25T20:38:03.539Z,5.80
2019-03-25T20:40:32.320Z,3.87
2019-03-25T20:43:01.336Z,5.47
2019-03-25T20:45:30.761Z,3.83
2019-03-25T20:48:00.652Z,5.03
2019-03-25T20:50:29.546Z,4.57
2019-03-25T20:52:58.751Z,4.17
2019-03-25T20:55:27.592Z,3.47
2019-03-25T20:57:57.024Z,3.83
2019-03-25T21:00:45.317Z,4.00
2019-03-25T21:03:14.267Z,3.77
2019-03-25T21:06:01.853Z,4.03
2019-03-25T21:08:30.611Z,3.20
2019-03-25T21:10:59.288Z,3.87
2019-03-25T21:13:28.003Z,4.77
2019-03-25T21:15:56.897Z,4.10
2019-03-25T21:18:25.641Z,4.73
2019-03-25T21:21:00.355Z,4.40
2019-03-25T21:23:29.486Z,3.70
2019-03-25T21:25:58.546Z,4.00
2019-03-25T21:28:27.729Z,4.10
2019-03-25T21:30:56.600Z,4.10
2019-03-25T21:33:35.386Z,4.20
2019-03-25T21:36:10.778Z,4.90
2019-03-25T21:38:48.100Z,4.73
2019-03-25T21:41:23.661Z,4.57
2019-03-25T21:44:16.048Z,4.77
2019-03-25T21:46:56.046Z,5.00
2019-03-25T21:49:31.992Z,4.23
2019-03-25T21:52:10.170Z,4.77
2019-03-25T21:54:49.231Z,4.50
2019-03-25T21:57:19.617Z,4.90
2019-03-25T21:59:53.893Z,4.07
2019-03-25T22:02:35.893Z,4.93
2019-03-25T22:05:27.520Z,4.27
2019-03-25T22:08:08.855Z,5.90
2019-03-25T22:10:42.759Z,4.27
2019-03-25T22:13:28.196Z,4.93
2019-03-25T22:16:00.263Z,3.47
2019-03-25T22:18:46.053Z,3.60
2019-03-25T22:21:25.801Z,3.87
2019-03-25T22:24:12.614Z,3.57
2019-03-25T22:27:00.938Z,3.70
2019-03-25T22:29:53.484Z,4.47
2019-03-25T22:36:20.461Z,3.63
2019-03-25T22:39:43.015Z,4.20
2019-03-25T22:46:08.966Z,4.10
2019-03-25T22:49:10.493Z,3.77
2019-03-25T22:52:19.127Z,3.33
2019-03-25T22:55:35.461Z,4.03
2019-03-25T22:58:37.240Z,3.77
2019-03-25T23:01:43.439Z,4.13
2019-03-25T23:04:33.270Z,6.07
2019-03-25T23:07:50.116Z,3.53
2019-03-25T23:11:13.095Z,4.50
2019-03-25T23:13:42.001Z,4.37
2019-03-25T23:16:10.664Z,3.83
2019-03-25T23:18:39.333Z,4.20
2019-03-25T23:24:18.602Z,3.73
2019-03-25T23:26:47.259Z,5.50
2019-03-25T23:29:15.900Z,3.77
2019-03-25T23:31:44.607Z,4.90
2019-03-25T23:34:13.285Z,4.33
2019-03-25T23:36:41.912Z,4.10
2019-03-25T23:39:10.550Z,3.60
2019-03-25T23:41:39.212Z,4.23
2019-03-25T23:44:07.856Z,3.60
2019-03-25T23:46:36.493Z,4.57
2019-03-25T23:49:05.233Z,3.77
2019-03-25T23:51:33.859Z,4.23
2019-03-25T23:54:12.403Z,4.00
2019-03-25T23:56:41.768Z,3.87
2019-03-25T23:59:10.477Z,4.37
